KCEF/CEF METAR and TAF weather

Enter ICAO airport designator
Station Type Date Time Source
KCEF METAR 2021/05/12 00:56 UTC NOAA

KCEF 120056Z 32009KT 10SM FEW080 11/M03 A3000 RMK AO2A SLP165 T01071034


Station Type Date Time Source
KCEF Decoded METAR 2021/05/12 00:56 UTC NOAA

Chicopee Falls / Westover Air Force Base, MA, United States (KCEF) 42-12N 072-32W 75M
May 11, 2021 - 08:56 PM EDT / 2021.05.12 0056 UTC
Wind: from the NW (320 degrees) at 10 MPH (9 KT):0
Visibility: 10 mile(s):0
Sky conditions: mostly clear
Temperature: 51.3 F (10.7 C)
Dew Point: 25.9 F (-3.4 C)
Relative Humidity: 36%
Pressure (altimeter): 30 in. Hg (1015 hPa)
ob: KCEF 120056Z 32009KT 10SM FEW080 11/M03 A3000 RMK AO2A SLP165 T01071034
cycle: 1

Station Type Date Time Source
KCEF TAF 2021/05/11 20:29 UTC NOAA

TAF
AMD KCEF 112009Z 1120/1224 29010G15KT 9999 BKN080 620804 510105 QNH2991INS
TEMPO 1120/1124 31015G25KT 520006
BECMG 1206/1207 29010G15KT 9999 SCT030 QNH2999INS
BECMG 1211/1212 31014G22KT 9999 BKN030 620403 510004 QNH3003INS
TEMPO 1213/1217 32015G25KT 520005
BECMG 1217/1218 33012G20KT 9999 BKN040 620404 510004 QNH3005INS
BECMG 1221/1222 33009KT 9999 BKN050 620503 QNH3006INS TX18/1121Z TN05/1210Z

Example: see airport list